Lostwood, North Dakota
Current Conditions -  °F | °C
As of 11:55 AM on Friday 24 Oct 2014 (Local Time) from K08D Reporting Station
Clear Clear  
Wind Chill: 59°   Ceiling: Unl
Heat Index: 59°   Visibility: 10mi
Dew Point: 34°   Wind: 25mph
Humidity: 39%   Direction: 280°W
Pressure: 29.87"   Gusts: 35mph
Location:  48.3212°N, 102.393°W
Report Text: K08D 241655Z AUTO 28022G30KT 10SM CLR 15/01 A2987 RMK AO2
Loading
Personal Weather Stations






























Interactive Weather Map
Tropical Storm Tracking
New forecast layout! Learn more

10-Day Weather Forecast

Advertisements
Track Severe Weather on mobile